createdAt,value
2018-09-15T00:01:45.292Z,15.28
2018-09-15T00:04:14.742Z,15.35
2018-09-15T00:06:43.192Z,15.27
2018-09-15T00:09:11.650Z,15.33
2018-09-15T00:11:40.161Z,15.23
2018-09-15T00:14:10.980Z,15.16
2018-09-15T00:16:39.991Z,15.15
2018-09-15T00:19:08.706Z,15.15
2018-09-15T00:21:38.918Z,15.21
2018-09-15T00:24:07.709Z,15.15
2018-09-15T00:26:36.198Z,15.11
2018-09-15T00:29:05.444Z,15.02
2018-09-15T00:31:35.594Z,15.07
2018-09-15T00:34:04.068Z,15.07
2018-09-15T00:36:33.234Z,15.00
2018-09-15T00:39:02.166Z,14.88
2018-09-15T00:41:31.871Z,14.87
2018-09-15T00:44:00.335Z,14.79
2018-09-15T00:46:28.779Z,14.75
2018-09-15T00:48:58.261Z,14.66
2018-09-15T00:51:26.715Z,14.72
2018-09-15T00:53:55.458Z,14.58
2018-09-15T00:56:24.280Z,14.48
2018-09-15T00:58:52.837Z,14.46
2018-09-15T01:01:21.695Z,14.39
2018-09-15T01:03:50.158Z,14.27
2018-09-15T01:06:18.682Z,14.29
2018-09-15T01:08:48.200Z,14.22
2018-09-15T01:11:16.914Z,14.13
2018-09-15T01:13:45.524Z,13.90
2018-09-15T01:16:14.998Z,13.72
2018-09-15T01:18:43.471Z,13.71
2018-09-15T01:21:11.989Z,13.84
2018-09-15T01:23:40.443Z,13.80
2018-09-15T01:26:09.135Z,13.78
2018-09-15T01:28:39.808Z,13.73
2018-09-15T01:31:09.693Z,13.81
2018-09-15T01:33:38.705Z,13.75
2018-09-15T01:36:07.763Z,13.77
2018-09-15T01:38:36.363Z,13.84
2018-09-15T01:41:04.805Z,13.77
2018-09-15T01:43:33.663Z,13.67
2018-09-15T01:46:02.120Z,13.67
2018-09-15T01:48:31.038Z,13.55
2018-09-15T01:50:59.960Z,13.50
2018-09-15T01:53:28.853Z,13.49
2018-09-15T01:55:57.602Z,13.42
2018-09-15T01:58:26.759Z,13.31
2018-09-15T02:00:57.763Z,13.30
2018-09-15T02:03:29.700Z,13.37
2018-09-15T02:05:58.479Z,13.31
2018-09-15T02:08:27.488Z,13.44
2018-09-15T02:10:56.087Z,13.30
2018-09-15T02:13:26.947Z,13.32
2018-09-15T02:15:55.387Z,13.32
2018-09-15T02:18:23.820Z,13.32
2018-09-15T02:20:52.791Z,13.32
2018-09-15T02:23:21.651Z,13.20
2018-09-15T02:25:50.552Z,13.20
2018-09-15T02:28:19.001Z,13.30
2018-09-15T02:30:47.487Z,13.41
2018-09-15T02:33:16.539Z,13.27
2018-09-15T02:35:45.429Z,13.31
2018-09-15T02:38:16.433Z,13.20
2018-09-15T02:40:47.177Z,13.19
2018-09-15T02:43:16.016Z,13.21
2018-09-15T02:45:44.458Z,12.93
2018-09-15T02:48:13.408Z,13.00
2018-09-15T02:50:41.897Z,12.97
2018-09-15T02:53:10.348Z,12.96
2018-09-15T02:55:39.052Z,12.97
2018-09-15T02:58:08.075Z,12.95
2018-09-15T03:00:37.007Z,13.00
2018-09-15T03:03:05.468Z,13.09
2018-09-15T03:05:34.250Z,13.00
2018-09-15T03:08:02.796Z,13.03
2018-09-15T03:10:36.892Z,13.01
2018-09-15T03:13:05.366Z,13.06
2018-09-15T03:15:35.645Z,13.11
2018-09-15T03:18:05.625Z,13.20
2018-09-15T03:20:34.473Z,13.28
2018-09-15T03:23:03.035Z,13.30
2018-09-15T03:25:31.844Z,13.24
2018-09-15T03:28:01.330Z,13.22
2018-09-15T03:30:29.805Z,13.04
2018-09-15T03:32:59.483Z,12.95
2018-09-15T03:35:27.945Z,12.93
2018-09-15T03:37:56.654Z,12.96
2018-09-15T03:40:25.814Z,12.98
2018-09-15T03:42:54.292Z,12.91
2018-09-15T03:45:23.296Z,12.94
2018-09-15T03:47:51.990Z,12.71
2018-09-15T03:50:20.434Z,12.79
2018-09-15T03:52:50.205Z,12.86
2018-09-15T03:55:18.663Z,12.87
2018-09-15T03:57:47.114Z,12.87
2018-09-15T04:00:16.544Z,12.85
2018-09-15T04:02:45.513Z,12.85
2018-09-15T04:05:13.987Z,12.94
2018-09-15T04:07:42.467Z,12.80
2018-09-15T04:10:11.380Z,12.89
2018-09-15T04:12:39.845Z,12.96
2018-09-15T04:15:08.710Z,12.98
2018-09-15T04:17:38.231Z,13.01
2018-09-15T04:20:06.902Z,13.03
2018-09-15T04:22:36.972Z,13.12
2018-09-15T04:25:06.756Z,13.10
2018-09-15T04:27:35.255Z,13.05
2018-09-15T04:30:04.003Z,13.12
2018-09-15T04:32:32.716Z,13.20
2018-09-15T04:35:01.185Z,13.28
2018-09-15T04:37:30.252Z,13.31
2018-09-15T04:39:59.725Z,13.25
2018-09-15T04:42:29.274Z,13.27
2018-09-15T04:44:58.111Z,13.24
2018-09-15T04:47:27.362Z,13.14
2018-09-15T04:49:56.188Z,13.02
2018-09-15T04:52:24.692Z,13.02
2018-09-15T04:54:53.172Z,12.97
2018-09-15T04:57:22.035Z,12.97
2018-09-15T04:59:52.023Z,12.94
2018-09-15T05:02:20.483Z,13.00
2018-09-15T05:04:49.390Z,13.00
2018-09-15T05:07:19.791Z,13.02
2018-09-15T05:09:48.907Z,13.04
2018-09-15T05:12:17.412Z,12.97
2018-09-15T05:14:45.827Z,12.97
2018-09-15T05:17:15.244Z,12.90
2018-09-15T05:19:43.869Z,12.95
2018-09-15T05:22:12.313Z,13.00
2018-09-15T05:24:41.105Z,13.06
2018-09-15T05:27:10.908Z,13.01
2018-09-15T05:29:40.790Z,12.93
2018-09-15T05:32:09.314Z,12.86
2018-09-15T05:34:38.790Z,12.88
2018-09-15T05:37:07.472Z,12.87
2018-09-15T05:39:36.402Z,12.90
2018-09-15T05:42:05.977Z,12.84
2018-09-15T05:44:35.454Z,12.86
2018-09-15T05:47:05.332Z,12.94
2018-09-15T05:49:38.859Z,12.93
2018-09-15T05:52:08.518Z,12.97
2018-09-15T05:54:37.445Z,13.02
2018-09-15T05:57:06.027Z,13.04
2018-09-15T05:59:34.516Z,13.06
2018-09-15T06:02:02.961Z,13.06
2018-09-15T06:04:33.665Z,13.09
2018-09-15T06:07:03.097Z,12.93
2018-09-15T06:09:32.109Z,12.89
2018-09-15T06:12:02.302Z,12.97
2018-09-15T06:14:31.966Z,12.97
2018-09-15T06:17:00.984Z,13.03
2018-09-15T06:19:29.479Z,13.14
2018-09-15T06:21:58.500Z,13.13
2018-09-15T06:24:27.415Z,13.10
2018-09-15T06:26:56.138Z,13.08
2018-09-15T06:29:25.688Z,12.86
2018-09-15T06:31:54.538Z,13.05
2018-09-15T06:34:23.645Z,13.17
2018-09-15T06:36:54.741Z,13.20
2018-09-15T06:39:24.443Z,13.29
2018-09-15T06:41:52.897Z,13.21
2018-09-15T06:44:21.399Z,13.26
2018-09-15T06:46:53.524Z,13.25
2018-09-15T06:49:22.992Z,13.40
2018-09-15T06:51:51.656Z,13.58
2018-09-15T06:54:20.134Z,13.79
2018-09-15T06:56:49.189Z,13.96
2018-09-15T06:59:18.707Z,13.98
2018-09-15T07:01:48.129Z,14.16
2018-09-15T07:04:17.829Z,14.21
2018-09-15T07:06:46.291Z,14.23
2018-09-15T07:09:15.282Z,14.28
2018-09-15T07:11:43.778Z,14.30
2018-09-15T07:14:12.684Z,14.44
2018-09-15T07:16:43.901Z,14.59
2018-09-15T07:19:13.340Z,14.71
2018-09-15T07:21:42.760Z,14.80
2018-09-15T07:24:11.661Z,14.74
2018-09-15T07:26:41.123Z,14.64
2018-09-15T07:29:10.595Z,14.69
2018-09-15T07:31:40.641Z,14.79
2018-09-15T07:34:09.090Z,14.91
2018-09-15T07:36:38.405Z,15.03
2018-09-15T07:39:09.481Z,15.10
2018-09-15T07:41:38.300Z,15.16
2018-09-15T07:44:07.941Z,14.89
2018-09-15T07:46:38.333Z,15.07
2018-09-15T07:49:07.091Z,15.21
2018-09-15T07:51:36.646Z,15.34
2018-09-15T07:54:05.856Z,15.07
2018-09-15T07:56:35.056Z,15.27
2018-09-15T07:59:03.752Z,15.36
2018-09-15T08:01:32.711Z,15.30
2018-09-15T08:04:02.166Z,15.43
2018-09-15T08:06:32.592Z,15.64
2018-09-15T08:09:01.463Z,15.77
2018-09-15T08:11:29.951Z,15.85
2018-09-15T08:13:58.761Z,15.79
2018-09-15T08:16:28.203Z,15.73
2018-09-15T08:18:57.042Z,15.84
2018-09-15T08:21:25.764Z,15.85
2018-09-15T08:23:56.038Z,16.02
2018-09-15T08:26:25.338Z,16.28
2018-09-15T08:28:54.114Z,16.53
2018-09-15T08:31:22.565Z,16.64
2018-09-15T08:33:52.725Z,16.66
2018-09-15T08:36:21.629Z,16.78
2018-09-15T08:38:50.665Z,16.91
2018-09-15T08:41:20.359Z,17.01
2018-09-15T08:43:49.930Z,17.03
2018-09-15T08:46:18.768Z,16.95
2018-09-15T08:48:47.204Z,17.03
2018-09-15T08:51:16.895Z,17.16
2018-09-15T08:53:46.097Z,17.18
2018-09-15T08:56:14.850Z,16.90
2018-09-15T08:58:44.354Z,17.29
2018-09-15T09:01:13.625Z,16.74
2018-09-15T09:03:43.145Z,16.90
2018-09-15T09:06:11.797Z,16.96
2018-09-15T09:08:40.593Z,17.58
2018-09-15T09:11:09.398Z,17.70
2018-09-15T09:13:38.864Z,17.97
2018-09-15T09:16:07.452Z,17.95
2018-09-15T09:18:36.578Z,18.04
2018-09-15T09:21:05.124Z,18.40
2018-09-15T09:23:33.756Z,18.60
2018-09-15T09:26:02.368Z,18.71
2018-09-15T09:28:30.671Z,18.61
2018-09-15T09:31:01.020Z,18.82
2018-09-15T09:33:29.799Z,18.80
2018-09-15T09:35:58.238Z,18.85
2018-09-15T09:38:29.755Z,19.02
2018-09-15T09:40:59.128Z,18.77
2018-09-15T09:43:38.190Z,18.50
2018-09-15T09:46:08.196Z,19.02
2018-09-15T09:48:37.552Z,18.86
2018-09-15T09:51:07.879Z,18.80
2018-09-15T09:53:36.613Z,19.28
2018-09-15T09:56:05.339Z,19.34
2018-09-15T09:58:33.835Z,19.47
2018-09-15T10:01:08.222Z,19.36
2018-09-15T10:03:37.024Z,19.87
2018-09-15T10:06:05.865Z,19.33
2018-09-15T10:08:34.722Z,18.30
2018-09-15T10:11:04.087Z,18.62
2018-09-15T10:13:32.517Z,18.88
2018-09-15T10:16:02.466Z,19.32
2018-09-15T10:18:30.947Z,19.29
2018-09-15T10:20:59.873Z,19.67
2018-09-15T10:23:28.558Z,19.99
2018-09-15T10:25:57.081Z,20.69
2018-09-15T10:28:26.034Z,20.75
2018-09-15T10:30:54.615Z,21.21
2018-09-15T10:33:24.188Z,21.23
2018-09-15T10:35:52.663Z,20.56
2018-09-15T10:38:21.136Z,21.13
2018-09-15T10:40:50.015Z,20.88
2018-09-15T10:43:19.195Z,20.96
2018-09-15T10:45:48.207Z,21.37
2018-09-15T10:48:16.641Z,21.69
2018-09-15T10:50:45.156Z,21.35
2018-09-15T10:53:14.190Z,21.08
2018-09-15T10:55:43.146Z,20.85
2018-09-15T10:58:11.933Z,20.42
2018-09-15T11:00:40.783Z,20.24
2018-09-15T11:03:11.412Z,20.00
2018-09-15T11:05:40.405Z,19.67
2018-09-15T11:08:09.729Z,19.65
2018-09-15T11:10:38.485Z,19.44
2018-09-15T11:13:07.569Z,19.41
2018-09-15T11:15:36.060Z,19.28
2018-09-15T11:18:05.033Z,19.25
2018-09-15T11:20:34.215Z,19.19
2018-09-15T11:23:03.325Z,19.24
2018-09-15T11:25:32.596Z,19.10
2018-09-15T11:28:01.491Z,19.14
2018-09-15T11:30:30.182Z,18.84
2018-09-15T11:32:59.039Z,19.02
2018-09-15T11:35:28.276Z,18.62
2018-09-15T11:37:56.782Z,18.82
2018-09-15T11:40:25.626Z,18.60
2018-09-15T11:42:54.369Z,19.02
2018-09-15T11:45:22.834Z,18.98
2018-09-15T11:47:52.259Z,19.04
2018-09-15T11:50:20.715Z,19.02
2018-09-15T11:52:49.251Z,19.05
2018-09-15T11:55:18.130Z,19.15
2018-09-15T11:57:46.895Z,19.25
2018-09-15T12:00:20.193Z,19.25
2018-09-15T12:02:49.085Z,19.11
2018-09-15T12:05:18.284Z,19.09
2018-09-15T12:07:47.394Z,19.30
2018-09-15T12:10:16.412Z,19.33
2018-09-15T12:12:45.203Z,19.38
2018-09-15T12:15:13.869Z,19.17
2018-09-15T12:17:42.375Z,19.36
2018-09-15T12:20:10.829Z,19.51
2018-09-15T12:22:39.335Z,19.27
2018-09-15T12:25:07.780Z,19.12
2018-09-15T12:27:36.248Z,19.03
2018-09-15T12:30:05.175Z,19.85
2018-09-15T12:32:33.973Z,20.60
2018-09-15T12:35:02.425Z,19.91
2018-09-15T12:37:30.919Z,19.80
2018-09-15T12:39:59.384Z,20.08
2018-09-15T12:42:28.758Z,20.70
2018-09-15T12:45:00.997Z,20.72
2018-09-15T12:47:29.479Z,21.32
2018-09-15T12:49:58.346Z,21.66
2018-09-15T12:52:26.889Z,21.56
2018-09-15T12:54:55.544Z,21.81
2018-09-15T12:57:24.025Z,21.42
2018-09-15T12:59:52.524Z,20.92
2018-09-15T13:02:21.063Z,21.13
2018-09-15T13:04:50.036Z,20.80
2018-09-15T13:07:18.499Z,20.23
2018-09-15T13:09:47.950Z,20.27
2018-09-15T13:12:16.486Z,20.20
2018-09-15T13:14:44.961Z,20.20
2018-09-15T13:17:14.831Z,20.13
2018-09-15T13:19:43.914Z,19.78
2018-09-15T13:22:13.221Z,19.70
2018-09-15T13:24:42.033Z,19.59
2018-09-15T13:27:10.881Z,19.51
2018-09-15T13:29:39.859Z,19.58
2018-09-15T13:32:09.088Z,19.70
2018-09-15T13:34:37.819Z,19.66
2018-09-15T13:37:06.308Z,19.49
2018-09-15T13:39:35.643Z,19.23
2018-09-15T13:42:05.163Z,19.23
2018-09-15T13:44:34.401Z,19.26
2018-09-15T13:47:02.883Z,19.53
2018-09-15T13:49:31.918Z,19.55
2018-09-15T13:52:01.297Z,19.55
2018-09-15T13:54:30.078Z,19.62
2018-09-15T13:56:58.842Z,19.48
2018-09-15T13:59:27.552Z,19.56
2018-09-15T14:01:55.971Z,19.80
2018-09-15T14:04:25.535Z,19.43
2018-09-15T14:06:54.358Z,19.84
2018-09-15T14:09:23.823Z,19.99
2018-09-15T14:11:52.868Z,19.78
2018-09-15T14:14:21.323Z,20.13
2018-09-15T14:16:50.513Z,20.21
2018-09-15T14:19:19.770Z,19.56
2018-09-15T14:21:48.280Z,19.66
2018-09-15T14:24:17.262Z,19.73
2018-09-15T14:26:45.760Z,19.98
2018-09-15T14:29:14.230Z,20.21
2018-09-15T14:31:43.280Z,19.98
2018-09-15T14:34:12.213Z,19.78
2018-09-15T14:36:41.217Z,19.66
2018-09-15T14:39:13.650Z,19.51
2018-09-15T14:41:42.224Z,19.31
2018-09-15T14:44:10.672Z,19.62
2018-09-15T14:46:39.210Z,19.70
2018-09-15T14:49:08.510Z,19.94
2018-09-15T14:51:37.112Z,19.99
2018-09-15T14:54:05.960Z,19.76
2018-09-15T14:56:35.456Z,19.79
2018-09-15T14:59:04.016Z,19.89
2018-09-15T15:01:33.159Z,20.09
2018-09-15T15:04:02.834Z,19.77
2018-09-15T15:06:31.327Z,19.91
2018-09-15T15:09:00.182Z,20.13
2018-09-15T15:11:29.002Z,20.30
2018-09-15T15:13:58.054Z,19.97
2018-09-15T15:16:26.512Z,19.55
2018-09-15T15:18:54.951Z,19.83
2018-09-15T15:21:23.533Z,20.00
2018-09-15T15:23:52.587Z,20.33
2018-09-15T15:26:21.952Z,20.46
2018-09-15T15:28:50.890Z,20.63
2018-09-15T15:31:20.268Z,20.73
2018-09-15T15:33:49.811Z,20.77
2018-09-15T15:36:19.511Z,20.74
2018-09-15T15:38:49.102Z,20.68
2018-09-15T15:41:17.590Z,20.67
2018-09-15T15:43:46.191Z,20.54
2018-09-15T15:46:14.613Z,20.42
2018-09-15T15:48:43.069Z,20.38
2018-09-15T15:51:11.991Z,20.30
2018-09-15T15:53:40.553Z,20.21
2018-09-15T15:56:09.055Z,20.04
2018-09-15T15:58:38.021Z,20.01
2018-09-15T16:01:06.552Z,20.08
2018-09-15T16:03:35.539Z,19.95
2018-09-15T16:06:05.984Z,19.87
2018-09-15T16:08:35.905Z,19.93
2018-09-15T16:11:04.909Z,19.93
2018-09-15T16:13:34.304Z,19.88
2018-09-15T16:16:02.975Z,19.87
2018-09-15T16:18:32.221Z,19.94
2018-09-15T16:21:01.357Z,19.92
2018-09-15T16:23:30.698Z,19.82
2018-09-15T16:25:59.375Z,19.77
2018-09-15T16:28:31.951Z,19.68
2018-09-15T16:31:01.231Z,19.63
2018-09-15T16:33:30.030Z,19.55
2018-09-15T16:35:58.517Z,19.47
2018-09-15T16:38:27.388Z,19.39
2018-09-15T16:40:56.731Z,19.42
2018-09-15T16:43:26.856Z,19.39
2018-09-15T16:45:55.359Z,19.47
2018-09-15T16:48:24.111Z,19.37
2018-09-15T16:50:52.540Z,19.34
2018-09-15T16:53:21.012Z,19.32
2018-09-15T16:55:49.902Z,19.29
2018-09-15T16:58:19.219Z,19.29
2018-09-15T17:00:47.709Z,19.30
2018-09-15T17:03:17.269Z,19.30
2018-09-15T17:05:46.525Z,19.22
2018-09-15T17:08:15.056Z,19.22
2018-09-15T17:10:44.266Z,19.14
2018-09-15T17:13:12.760Z,18.95
2018-09-15T17:15:42.506Z,18.97
2018-09-15T17:18:12.511Z,18.99
2018-09-15T17:20:40.966Z,18.93
2018-09-15T17:23:09.738Z,18.88
2018-09-15T17:25:38.257Z,18.78
2018-09-15T17:28:06.991Z,18.72
2018-09-15T17:30:35.985Z,18.68
2018-09-15T17:33:05.160Z,18.67
2018-09-15T17:35:35.029Z,18.62
2018-09-15T17:38:04.309Z,18.56
2018-09-15T17:40:33.214Z,18.50
2018-09-15T17:43:01.862Z,18.44
2018-09-15T17:45:31.153Z,18.43
2018-09-15T17:48:00.932Z,18.45
2018-09-15T17:50:29.410Z,18.36
2018-09-15T17:52:57.898Z,18.41
2018-09-15T17:55:27.963Z,18.37
2018-09-15T17:57:56.847Z,18.33
2018-09-15T18:00:25.534Z,18.29
2018-09-15T18:02:53.977Z,18.24
2018-09-15T18:05:23.606Z,18.26
2018-09-15T18:07:52.019Z,18.12
2018-09-15T18:10:20.896Z,17.70
2018-09-15T18:12:50.846Z,17.65
2018-09-15T18:15:20.178Z,17.68
2018-09-15T18:17:48.600Z,17.76
2018-09-15T18:20:17.324Z,17.74
2018-09-15T18:22:46.709Z,17.70
2018-09-15T18:25:16.089Z,17.69
2018-09-15T18:27:45.571Z,17.59
2018-09-15T18:30:14.486Z,17.53
2018-09-15T18:32:44.306Z,17.56
2018-09-15T18:35:13.100Z,17.50
2018-09-15T18:37:41.545Z,17.40
2018-09-15T18:40:10.918Z,17.37
2018-09-15T18:42:39.770Z,17.32
2018-09-15T18:45:08.633Z,17.25
2018-09-15T18:47:37.062Z,17.11
2018-09-15T18:50:05.822Z,16.92
2018-09-15T18:52:34.378Z,16.92
2018-09-15T18:55:04.299Z,16.81
2018-09-15T18:57:32.780Z,16.75
2018-09-15T19:00:02.167Z,16.55
2018-09-15T19:02:30.908Z,16.47
2018-09-15T19:05:00.109Z,16.42
2018-09-15T19:07:29.136Z,16.43
2018-09-15T19:09:57.925Z,16.33
2018-09-15T19:12:26.629Z,16.27
2018-09-15T19:14:55.134Z,16.20
2018-09-15T19:17:23.592Z,16.10
2018-09-15T19:19:52.716Z,16.01
2018-09-15T19:22:21.754Z,16.00
2018-09-15T19:24:50.247Z,16.01
2018-09-15T19:27:19.023Z,15.98
2018-09-15T19:29:47.487Z,15.91
2018-09-15T19:32:17.290Z,15.88
2018-09-15T19:34:46.856Z,15.87
2018-09-15T19:37:17.715Z,15.70
2018-09-15T19:39:47.082Z,15.63
2018-09-15T19:42:16.584Z,15.59
2018-09-15T19:44:46.440Z,15.46
2018-09-15T19:47:15.431Z,15.45
2018-09-15T19:49:43.893Z,15.41
2018-09-15T19:52:12.373Z,15.23
2018-09-15T19:54:41.207Z,15.17
2018-09-15T19:57:09.684Z,15.11
2018-09-15T19:59:38.146Z,15.18
2018-09-15T20:02:06.954Z,15.15
2018-09-15T20:04:35.400Z,15.05
2018-09-15T20:07:04.542Z,14.96
2018-09-15T20:09:33.115Z,14.97
2018-09-15T20:12:01.556Z,15.09
2018-09-15T20:14:30.507Z,15.06
2018-09-15T20:16:57.746Z,15.01
2018-09-15T20:19:25.014Z,15.00
2018-09-15T20:21:53.442Z,14.96
2018-09-15T20:24:22.723Z,14.96
2018-09-15T20:26:51.531Z,14.94
2018-09-15T20:29:20.024Z,14.91
2018-09-15T20:31:49.191Z,14.81
2018-09-15T20:34:17.633Z,14.87
2018-09-15T20:36:46.473Z,14.84
2018-09-15T20:39:15.357Z,14.87
2018-09-15T20:41:44.070Z,14.78
2018-09-15T20:44:12.540Z,14.72
2018-09-15T20:46:40.991Z,14.66
2018-09-15T20:49:09.609Z,14.62
2018-09-15T20:51:38.061Z,14.59
2018-09-15T20:54:06.562Z,14.60
2018-09-15T20:56:36.119Z,14.58
2018-09-15T20:59:05.348Z,14.52
2018-09-15T21:01:33.760Z,14.47
2018-09-15T21:04:03.145Z,14.44
2018-09-15T21:06:32.367Z,14.48
2018-09-15T21:09:00.841Z,14.37
2018-09-15T21:11:29.632Z,14.28
2018-09-15T21:13:58.353Z,14.23
2018-09-15T21:16:28.160Z,14.02
2018-09-15T21:18:57.285Z,13.96
2018-09-15T21:21:26.090Z,13.88
2018-09-15T21:23:54.543Z,13.90
2018-09-15T21:26:23.451Z,13.90
2018-09-15T21:28:52.312Z,13.98
2018-09-15T21:31:20.773Z,14.08
2018-09-15T21:33:49.233Z,14.09
2018-09-15T21:36:18.056Z,13.97
2018-09-15T21:38:46.712Z,13.83
2018-09-15T21:41:16.228Z,13.77
2018-09-15T21:43:44.688Z,13.75
2018-09-15T21:46:13.825Z,13.71
2018-09-15T21:48:42.619Z,13.60
2018-09-15T21:51:11.615Z,13.64
2018-09-15T21:53:40.460Z,13.58
2018-09-15T21:56:09.034Z,13.63
2018-09-15T21:58:37.525Z,13.62
2018-09-15T22:01:06.495Z,13.59
2018-09-15T22:03:41.600Z,13.53
2018-09-15T22:06:10.056Z,13.61
2018-09-15T22:08:38.841Z,13.67
2018-09-15T22:11:09.721Z,13.68
2018-09-15T22:13:39.040Z,13.71
2018-09-15T22:16:07.781Z,13.67
2018-09-15T22:18:36.473Z,13.64
2018-09-15T22:21:06.294Z,13.53
2018-09-15T22:23:34.704Z,13.48
2018-09-15T22:26:03.325Z,13.43
2018-09-15T22:28:32.591Z,13.30
2018-09-15T22:31:01.059Z,13.24
2018-09-15T22:33:29.788Z,13.24
2018-09-15T22:35:59.128Z,13.21
2018-09-15T22:38:28.912Z,13.14
2018-09-15T22:40:58.773Z,13.12
2018-09-15T22:43:27.252Z,13.11
2018-09-15T22:45:55.717Z,13.18
2018-09-15T22:48:24.164Z,13.30
2018-09-15T22:50:54.453Z,13.34
2018-09-15T22:53:23.140Z,13.36
2018-09-15T22:55:53.384Z,13.41
2018-09-15T22:58:21.834Z,13.42
2018-09-15T23:00:50.729Z,13.35
2018-09-15T23:03:20.481Z,13.25
2018-09-15T23:05:48.968Z,13.16
2018-09-15T23:08:17.448Z,13.01
2018-09-15T23:10:46.316Z,12.92
2018-09-15T23:13:15.796Z,12.84
2018-09-15T23:15:45.865Z,12.80
2018-09-15T23:18:14.673Z,12.80
2018-09-15T23:20:44.152Z,12.80
2018-09-15T23:23:13.787Z,12.76
2018-09-15T23:25:43.566Z,12.72
2018-09-15T23:28:12.297Z,12.63
2018-09-15T23:30:41.185Z,12.64
2018-09-15T23:33:09.647Z,12.63
2018-09-15T23:35:38.333Z,12.56
2018-09-15T23:38:08.137Z,12.45
2018-09-15T23:40:36.594Z,12.43
2018-09-15T23:43:05.464Z,12.45
2018-09-15T23:45:33.903Z,12.29
2018-09-15T23:48:03.726Z,12.45
2018-09-15T23:50:32.487Z,12.42
2018-09-15T23:53:02.109Z,12.28
2018-09-15T23:55:31.553Z,12.12
2018-09-15T23:58:01.426Z,12.08
